sensor_id;sensor_type;location;lat;lon;timestamp;temperature;humidity
35894;DHT22;21994;48.204;16.516;2022-10-18T00:01:52;11.50;99.90
35894;DHT22;21994;48.204;16.516;2022-10-18T00:04:18;11.50;99.90
35894;DHT22;21994;48.204;16.516;2022-10-18T00:06:44;11.40;99.90
35894;DHT22;21994;48.204;16.516;2022-10-18T00:09:10;11.30;99.90
35894;DHT22;21994;48.204;16.516;2022-10-18T00:11:36;11.30;99.90
35894;DHT22;21994;48.204;16.516;2022-10-18T00:14:02;11.30;99.90
35894;DHT22;21994;48.204;16.516;2022-10-18T00:16:28;11.20;99.90
35894;DHT22;21994;48.204;16.516;2022-10-18T00:18:54;11.10;99.90
35894;DHT22;21994;48.204;16.516;2022-10-18T00:21:23;11.00;99.90
35894;DHT22;21994;48.204;16.516;2022-10-18T00:23:50;11.00;99.90
35894;DHT22;21994;48.204;16.516;2022-10-18T00:26:19;11.00;99.90
35894;DHT22;21994;48.204;16.516;2022-10-18T00:28:50;11.00;99.90
35894;DHT22;21994;48.204;16.516;2022-10-18T00:31:19;10.90;99.90
35894;DHT22;21994;48.204;16.516;2022-10-18T00:33:54;10.90;99.90
35894;DHT22;21994;48.204;16.516;2022-10-18T00:36:21;10.90;99.90
35894;DHT22;21994;48.204;16.516;2022-10-18T00:38:48;10.90;99.90
35894;DHT22;21994;48.204;16.516;2022-10-18T00:41:17;10.80;99.90
35894;DHT22;21994;48.204;16.516;2022-10-18T00:46:35;10.70;99.90
35894;DHT22;21994;48.204;16.516;2022-10-18T00:49:15;10.80;99.90
35894;DHT22;21994;48.204;16.516;2022-10-18T00:51:48;10.80;99.90
35894;DHT22;21994;48.204;16.516;2022-10-18T00:54:22;10.70;99.90
35894;DHT22;21994;48.204;16.516;2022-10-18T00:56:48;10.70;99.90
35894;DHT22;21994;48.204;16.516;2022-10-18T00:59:16;10.70;99.90
35894;DHT22;21994;48.204;16.516;2022-10-18T01:01:43;10.60;99.90
35894;DHT22;21994;48.204;16.516;2022-10-18T01:04:10;10.50;99.90
35894;DHT22;21994;48.204;16.516;2022-10-18T01:06:45;10.50;99.90
35894;DHT22;21994;48.204;16.516;2022-10-18T01:13:06;10.40;99.90
35894;DHT22;21994;48.204;16.516;2022-10-18T01:16:05;10.40;99.90
35894;DHT22;21994;48.204;16.516;2022-10-18T01:18:57;10.30;99.90
35894;DHT22;21994;48.204;16.516;2022-10-18T01:32:56;10.10;99.90
35894;DHT22;21994;48.204;16.516;2022-10-18T01:35:33;10.20;99.90
35894;DHT22;21994;48.204;16.516;2022-10-18T01:38:05;10.10;99.90
35894;DHT22;21994;48.204;16.516;2022-10-18T01:40:37;10.20;99.90
35894;DHT22;21994;48.204;16.516;2022-10-18T01:43:05;10.20;99.90
35894;DHT22;21994;48.204;16.516;2022-10-18T01:45:32;10.30;99.90
35894;DHT22;21994;48.204;16.516;2022-10-18T01:48:00;10.30;99.90
35894;DHT22;21994;48.204;16.516;2022-10-18T01:50:31;10.30;99.90
35894;DHT22;21994;48.204;16.516;2022-10-18T01:53:00;10.50;99.90
35894;DHT22;21994;48.204;16.516;2022-10-18T01:55:44;10.50;99.90
35894;DHT22;21994;48.204;16.516;2022-10-18T01:58:18;10.60;99.90
35894;DHT22;21994;48.204;16.516;2022-10-18T02:00:51;10.50;99.90
35894;DHT22;21994;48.204;16.516;2022-10-18T02:03:27;10.40;99.90
35894;DHT22;21994;48.204;16.516;2022-10-18T02:06:08;10.50;99.90
35894;DHT22;21994;48.204;16.516;2022-10-18T02:08:55;10.40;99.90
35894;DHT22;21994;48.204;16.516;2022-10-18T02:11:24;10.40;99.90
35894;DHT22;21994;48.204;16.516;2022-10-18T02:14:16;10.40;99.90
35894;DHT22;21994;48.204;16.516;2022-10-18T02:16:46;10.30;99.90
35894;DHT22;21994;48.204;16.516;2022-10-18T02:21:49;10.30;99.90
35894;DHT22;21994;48.204;16.516;2022-10-18T02:24:17;10.20;99.90
35894;DHT22;21994;48.204;16.516;2022-10-18T02:26:43;10.20;99.90
35894;DHT22;21994;48.204;16.516;2022-10-18T02:29:10;10.10;99.90
35894;DHT22;21994;48.204;16.516;2022-10-18T02:31:47;10.00;99.90
35894;DHT22;21994;48.204;16.516;2022-10-18T02:34:41;9.90;99.90
35894;DHT22;21994;48.204;16.516;2022-10-18T02:37:10;9.90;99.90
35894;DHT22;21994;48.204;16.516;2022-10-18T02:39:41;9.90;99.90
35894;DHT22;21994;48.204;16.516;2022-10-18T02:42:10;9.90;99.90
35894;DHT22;21994;48.204;16.516;2022-10-18T02:44:37;9.90;99.90
35894;DHT22;21994;48.204;16.516;2022-10-18T02:47:04;9.80;99.90
35894;DHT22;21994;48.204;16.516;2022-10-18T02:49:31;9.70;99.90
35894;DHT22;21994;48.204;16.516;2022-10-18T02:51:56;9.70;99.90
35894;DHT22;21994;48.204;16.516;2022-10-18T02:54:23;9.70;99.90
35894;DHT22;21994;48.204;16.516;2022-10-18T02:56:49;9.70;99.90
35894;DHT22;21994;48.204;16.516;2022-10-18T02:59:15;9.60;99.90
35894;DHT22;21994;48.204;16.516;2022-10-18T03:01:41;9.50;99.90
35894;DHT22;21994;48.204;16.516;2022-10-18T03:04:06;9.50;99.90
35894;DHT22;21994;48.204;16.516;2022-10-18T03:06:33;9.50;99.90
35894;DHT22;21994;48.204;16.516;2022-10-18T03:09:01;9.50;99.90
35894;DHT22;21994;48.204;16.516;2022-10-18T03:11:28;9.50;99.90
35894;DHT22;21994;48.204;16.516;2022-10-18T03:13:53;9.50;99.90
35894;DHT22;21994;48.204;16.516;2022-10-18T03:16:19;9.50;99.90
35894;DHT22;21994;48.204;16.516;2022-10-18T03:18:45;9.50;99.90
35894;DHT22;21994;48.204;16.516;2022-10-18T03:21:11;9.40;99.90
35894;DHT22;21994;48.204;16.516;2022-10-18T03:23:37;9.40;99.90
35894;DHT22;21994;48.204;16.516;2022-10-18T03:26:04;9.30;99.90
35894;DHT22;21994;48.204;16.516;2022-10-18T03:28:30;9.30;99.90
35894;DHT22;21994;48.204;16.516;2022-10-18T03:31:00;9.30;99.90
35894;DHT22;21994;48.204;16.516;2022-10-18T03:33:27;9.20;99.90
35894;DHT22;21994;48.204;16.516;2022-10-18T03:35:53;9.20;99.90
35894;DHT22;21994;48.204;16.516;2022-10-18T03:38:18;9.30;99.90
35894;DHT22;21994;48.204;16.516;2022-10-18T03:40:44;9.30;99.90
35894;DHT22;21994;48.204;16.516;2022-10-18T03:43:10;9.30;99.90
35894;DHT22;21994;48.204;16.516;2022-10-18T03:45:36;9.20;99.90
35894;DHT22;21994;48.204;16.516;2022-10-18T03:48:02;9.20;99.90
35894;DHT22;21994;48.204;16.516;2022-10-18T03:50:28;9.20;99.90
35894;DHT22;21994;48.204;16.516;2022-10-18T03:52:54;9.30;99.90
35894;DHT22;21994;48.204;16.516;2022-10-18T03:55:20;9.30;99.90
35894;DHT22;21994;48.204;16.516;2022-10-18T03:57:46;9.30;99.90
35894;DHT22;21994;48.204;16.516;2022-10-18T04:00:12;9.20;99.90
35894;DHT22;21994;48.204;16.516;2022-10-18T04:02:40;9.20;99.90
35894;DHT22;21994;48.204;16.516;2022-10-18T04:05:06;9.20;99.90
35894;DHT22;21994;48.204;16.516;2022-10-18T04:07:34;9.10;99.90
35894;DHT22;21994;48.204;16.516;2022-10-18T04:10:00;9.00;99.90
35894;DHT22;21994;48.204;16.516;2022-10-18T04:12:26;8.90;99.90
35894;DHT22;21994;48.204;16.516;2022-10-18T04:14:52;8.90;99.90
35894;DHT22;21994;48.204;16.516;2022-10-18T04:17:18;8.90;99.90
35894;DHT22;21994;48.204;16.516;2022-10-18T04:19:43;8.80;99.90
35894;DHT22;21994;48.204;16.516;2022-10-18T04:22:10;8.80;99.90
35894;DHT22;21994;48.204;16.516;2022-10-18T04:24:39;8.70;99.90
35894;DHT22;21994;48.204;16.516;2022-10-18T04:27:05;8.70;99.90
35894;DHT22;21994;48.204;16.516;2022-10-18T04:29:32;8.70;99.90
35894;DHT22;21994;48.204;16.516;2022-10-18T04:31:58;8.60;99.90
35894;DHT22;21994;48.204;16.516;2022-10-18T04:34:25;8.70;99.90
35894;DHT22;21994;48.204;16.516;2022-10-18T04:36:51;8.80;99.90
35894;DHT22;21994;48.204;16.516;2022-10-18T04:39:16;8.70;99.90
35894;DHT22;21994;48.204;16.516;2022-10-18T04:41:42;8.60;99.90
35894;DHT22;21994;48.204;16.516;2022-10-18T04:44:08;8.70;99.90
35894;DHT22;21994;48.204;16.516;2022-10-18T04:46:34;8.50;99.90
35894;DHT22;21994;48.204;16.516;2022-10-18T04:49:00;8.50;99.90
35894;DHT22;21994;48.204;16.516;2022-10-18T04:51:29;8.50;99.90
35894;DHT22;21994;48.204;16.516;2022-10-18T04:53:55;8.50;99.90
35894;DHT22;21994;48.204;16.516;2022-10-18T04:56:21;8.40;99.90
35894;DHT22;21994;48.204;16.516;2022-10-18T04:58:47;8.40;99.90
35894;DHT22;21994;48.204;16.516;2022-10-18T05:01:13;8.40;99.90
35894;DHT22;21994;48.204;16.516;2022-10-18T05:03:39;8.30;99.90
35894;DHT22;21994;48.204;16.516;2022-10-18T05:06:05;8.20;99.90
35894;DHT22;21994;48.204;16.516;2022-10-18T05:08:33;8.30;99.90
35894;DHT22;21994;48.204;16.516;2022-10-18T05:11:00;8.20;99.90
35894;DHT22;21994;48.204;16.516;2022-10-18T05:13:27;8.20;99.90
35894;DHT22;21994;48.204;16.516;2022-10-18T05:15:53;8.10;99.90
35894;DHT22;21994;48.204;16.516;2022-10-18T05:18:19;8.10;99.90
35894;DHT22;21994;48.204;16.516;2022-10-18T05:20:45;8.10;99.90
35894;DHT22;21994;48.204;16.516;2022-10-18T05:23:11;8.10;99.90
35894;DHT22;21994;48.204;16.516;2022-10-18T05:25:39;8.00;99.90
35894;DHT22;21994;48.204;16.516;2022-10-18T05:28:06;8.10;99.90
35894;DHT22;21994;48.204;16.516;2022-10-18T05:30:32;8.10;99.90
35894;DHT22;21994;48.204;16.516;2022-10-18T05:32:58;8.00;99.90
35894;DHT22;21994;48.204;16.516;2022-10-18T05:35:24;8.10;99.90
35894;DHT22;21994;48.204;16.516;2022-10-18T05:37:50;8.10;99.90
35894;DHT22;21994;48.204;16.516;2022-10-18T05:40:16;8.10;99.90
35894;DHT22;21994;48.204;16.516;2022-10-18T05:42:41;8.10;99.90
35894;DHT22;21994;48.204;16.516;2022-10-18T05:45:10;8.20;99.90
35894;DHT22;21994;48.204;16.516;2022-10-18T05:47:36;8.10;99.90
35894;DHT22;21994;48.204;16.516;2022-10-18T05:50:02;8.10;99.90
35894;DHT22;21994;48.204;16.516;2022-10-18T05:52:29;8.10;99.90
35894;DHT22;21994;48.204;16.516;2022-10-18T05:54:54;8.10;99.90
35894;DHT22;21994;48.204;16.516;2022-10-18T05:57:20;8.10;99.90
35894;DHT22;21994;48.204;16.516;2022-10-18T05:59:46;8.20;99.90
35894;DHT22;21994;48.204;16.516;2022-10-18T06:02:12;8.20;99.90
35894;DHT22;21994;48.204;16.516;2022-10-18T06:04:39;8.30;99.90
35894;DHT22;21994;48.204;16.516;2022-10-18T06:07:09;8.30;99.90
35894;DHT22;21994;48.204;16.516;2022-10-18T06:09:36;8.30;99.90
35894;DHT22;21994;48.204;16.516;2022-10-18T06:12:05;8.30;99.90
35894;DHT22;21994;48.204;16.516;2022-10-18T06:14:33;8.30;99.90
35894;DHT22;21994;48.204;16.516;2022-10-18T06:17:00;8.40;99.90
35894;DHT22;21994;48.204;16.516;2022-10-18T06:19:25;8.40;99.90
35894;DHT22;21994;48.204;16.516;2022-10-18T06:21:51;8.60;99.90
35894;DHT22;21994;48.204;16.516;2022-10-18T06:24:17;8.70;99.90
35894;DHT22;21994;48.204;16.516;2022-10-18T06:26:46;8.90;99.90
35894;DHT22;21994;48.204;16.516;2022-10-18T06:29:12;9.00;99.90
35894;DHT22;21994;48.204;16.516;2022-10-18T06:31:39;9.10;99.90
35894;DHT22;21994;48.204;16.516;2022-10-18T06:34:04;9.20;99.90
35894;DHT22;21994;48.204;16.516;2022-10-18T06:36:30;9.30;99.90
35894;DHT22;21994;48.204;16.516;2022-10-18T06:38:56;9.40;99.90
35894;DHT22;21994;48.204;16.516;2022-10-18T06:41:24;9.40;99.90
35894;DHT22;21994;48.204;16.516;2022-10-18T06:43:52;9.40;99.90
35894;DHT22;21994;48.204;16.516;2022-10-18T06:46:22;9.60;99.90
35894;DHT22;21994;48.204;16.516;2022-10-18T06:48:48;9.70;99.90
35894;DHT22;21994;48.204;16.516;2022-10-18T06:51:14;9.80;99.90
35894;DHT22;21994;48.204;16.516;2022-10-18T06:53:40;10.00;99.90
35894;DHT22;21994;48.204;16.516;2022-10-18T06:56:09;10.00;99.90
35894;DHT22;21994;48.204;16.516;2022-10-18T06:58:37;10.50;99.90
35894;DHT22;21994;48.204;16.516;2022-10-18T07:01:07;10.60;99.90
35894;DHT22;21994;48.204;16.516;2022-10-18T07:03:37;10.50;99.90
35894;DHT22;21994;48.204;16.516;2022-10-18T07:06:05;10.60;99.90
35894;DHT22;21994;48.204;16.516;2022-10-18T07:08:33;10.60;99.90
35894;DHT22;21994;48.204;16.516;2022-10-18T07:10:59;10.60;99.90
35894;DHT22;21994;48.204;16.516;2022-10-18T07:13:28;10.70;99.90
35894;DHT22;21994;48.204;16.516;2022-10-18T07:16:12;10.90;99.90
35894;DHT22;21994;48.204;16.516;2022-10-18T07:18:41;11.00;99.90
35894;DHT22;21994;48.204;16.516;2022-10-18T07:21:12;11.10;99.90
35894;DHT22;21994;48.204;16.516;2022-10-18T07:23:41;11.40;99.90
35894;DHT22;21994;48.204;16.516;2022-10-18T07:28:56;11.90;99.90
35894;DHT22;21994;48.204;16.516;2022-10-18T07:31:29;12.00;99.90
35894;DHT22;21994;48.204;16.516;2022-10-18T07:33:58;12.00;99.90
35894;DHT22;21994;48.204;16.516;2022-10-18T07:36:24;12.10;99.90
35894;DHT22;21994;48.204;16.516;2022-10-18T07:38:51;12.10;99.90
35894;DHT22;21994;48.204;16.516;2022-10-18T07:41:18;12.30;99.90
35894;DHT22;21994;48.204;16.516;2022-10-18T07:43:46;12.40;99.90
35894;DHT22;21994;48.204;16.516;2022-10-18T07:46:21;12.60;99.90
35894;DHT22;21994;48.204;16.516;2022-10-18T07:48:50;12.60;99.90
35894;DHT22;21994;48.204;16.516;2022-10-18T07:51:17;12.70;99.90
35894;DHT22;21994;48.204;16.516;2022-10-18T07:53:44;12.90;99.90
35894;DHT22;21994;48.204;16.516;2022-10-18T07:56:12;13.00;99.90
35894;DHT22;21994;48.204;16.516;2022-10-18T07:58:49;13.10;99.90
35894;DHT22;21994;48.204;16.516;2022-10-18T08:01:16;13.20;99.90
35894;DHT22;21994;48.204;16.516;2022-10-18T08:03:42;13.30;99.90
35894;DHT22;21994;48.204;16.516;2022-10-18T08:06:10;13.30;99.90
35894;DHT22;21994;48.204;16.516;2022-10-18T08:08:38;13.30;99.90
35894;DHT22;21994;48.204;16.516;2022-10-18T08:11:14;13.30;99.90
35894;DHT22;21994;48.204;16.516;2022-10-18T08:13:47;13.30;99.90
35894;DHT22;21994;48.204;16.516;2022-10-18T08:16:16;13.50;99.90
35894;DHT22;21994;48.204;16.516;2022-10-18T08:18:44;13.60;99.90
35894;DHT22;21994;48.204;16.516;2022-10-18T08:21:11;13.90;99.90
35894;DHT22;21994;48.204;16.516;2022-10-18T08:23:38;15.00;99.90
35894;DHT22;21994;48.204;16.516;2022-10-18T08:26:07;16.10;99.90
35894;DHT22;21994;48.204;16.516;2022-10-18T08:28:34;17.20;99.90
35894;DHT22;21994;48.204;16.516;2022-10-18T08:31:06;18.30;99.90
35894;DHT22;21994;48.204;16.516;2022-10-18T08:33:33;19.40;99.90
35894;DHT22;21994;48.204;16.516;2022-10-18T08:36:02;20.20;98.80
35894;DHT22;21994;48.204;16.516;2022-10-18T08:38:36;20.60;99.20
35894;DHT22;21994;48.204;16.516;2022-10-18T08:43:46;21.80;96.10
35894;DHT22;21994;48.204;16.516;2022-10-18T08:46:19;22.00;96.20
35894;DHT22;21994;48.204;16.516;2022-10-18T08:48:50;22.30;94.90
35894;DHT22;21994;48.204;16.516;2022-10-18T08:51:36;22.50;94.10
35894;DHT22;21994;48.204;16.516;2022-10-18T08:54:21;22.90;94.40
35894;DHT22;21994;48.204;16.516;2022-10-18T08:56:58;22.70;94.60
35894;DHT22;21994;48.204;16.516;2022-10-18T08:59:30;23.90;92.60
35894;DHT22;21994;48.204;16.516;2022-10-18T09:13:18;24.40;91.10
35894;DHT22;21994;48.204;16.516;2022-10-18T09:16:13;24.40;91.40
35894;DHT22;21994;48.204;16.516;2022-10-18T09:19:06;24.20;91.60
35894;DHT22;21994;48.204;16.516;2022-10-18T09:22:00;24.50;90.90
35894;DHT22;21994;48.204;16.516;2022-10-18T09:27:17;25.20;90.20
35894;DHT22;21994;48.204;16.516;2022-10-18T09:30:27;24.80;90.30
35894;DHT22;21994;48.204;16.516;2022-10-18T09:33:42;25.10;89.70
35894;DHT22;21994;48.204;16.516;2022-10-18T09:36:23;26.00;88.50
35894;DHT22;21994;48.204;16.516;2022-10-18T09:46:24;25.30;89.80
35894;DHT22;21994;48.204;16.516;2022-10-18T09:54:36;26.30;88.30
35894;DHT22;21994;48.204;16.516;2022-10-18T09:58:06;27.20;85.50
35894;DHT22;21994;48.204;16.516;2022-10-18T10:00:52;27.10;84.30
35894;DHT22;21994;48.204;16.516;2022-10-18T10:04:03;27.20;84.20
35894;DHT22;21994;48.204;16.516;2022-10-18T10:07:11;27.30;83.40
35894;DHT22;21994;48.204;16.516;2022-10-18T10:10:54;26.80;83.90
35894;DHT22;21994;48.204;16.516;2022-10-18T10:14:23;27.10;84.30
35894;DHT22;21994;48.204;16.516;2022-10-18T10:21:12;26.30;84.60
35894;DHT22;21994;48.204;16.516;2022-10-18T10:23:57;26.40;85.40
35894;DHT22;21994;48.204;16.516;2022-10-18T10:26:32;26.60;85.40
35894;DHT22;21994;48.204;16.516;2022-10-18T10:28:59;26.30;85.50
35894;DHT22;21994;48.204;16.516;2022-10-18T10:31:34;26.00;87.10
35894;DHT22;21994;48.204;16.516;2022-10-18T10:34:02;25.80;86.70
35894;DHT22;21994;48.204;16.516;2022-10-18T10:36:31;25.90;85.60
35894;DHT22;21994;48.204;16.516;2022-10-18T10:39:10;26.20;86.00
35894;DHT22;21994;48.204;16.516;2022-10-18T10:41:52;26.00;86.40
35894;DHT22;21994;48.204;16.516;2022-10-18T10:44:25;26.30;85.50
35894;DHT22;21994;48.204;16.516;2022-10-18T10:46:53;26.50;86.80
35894;DHT22;21994;48.204;16.516;2022-10-18T10:49:42;26.10;86.40
35894;DHT22;21994;48.204;16.516;2022-10-18T10:52:19;26.50;83.90
35894;DHT22;21994;48.204;16.516;2022-10-18T10:54:46;26.20;86.90
35894;DHT22;21994;48.204;16.516;2022-10-18T10:57:25;25.90;86.90
35894;DHT22;21994;48.204;16.516;2022-10-18T10:59:57;25.80;87.70
35894;DHT22;21994;48.204;16.516;2022-10-18T11:02:35;25.60;88.80
35894;DHT22;21994;48.204;16.516;2022-10-18T11:08:40;23.80;91.30
35894;DHT22;21994;48.204;16.516;2022-10-18T11:11:30;23.00;92.60
35894;DHT22;21994;48.204;16.516;2022-10-18T11:14:24;22.70;92.50
35894;DHT22;21994;48.204;16.516;2022-10-18T11:17:20;22.20;93.20
35894;DHT22;21994;48.204;16.516;2022-10-18T11:20:14;22.10;93.10
35894;DHT22;21994;48.204;16.516;2022-10-18T11:23:00;21.90;95.00
35894;DHT22;21994;48.204;16.516;2022-10-18T11:32:19;21.80;93.90
35894;DHT22;21994;48.204;16.516;2022-10-18T11:40:45;21.60;95.50
35894;DHT22;21994;48.204;16.516;2022-10-18T11:43:41;21.80;94.90
35894;DHT22;21994;48.204;16.516;2022-10-18T11:46:36;21.90;95.60
35894;DHT22;21994;48.204;16.516;2022-10-18T11:52:28;21.90;94.70
35894;DHT22;21994;48.204;16.516;2022-10-18T11:55:15;22.20;95.70
35894;DHT22;21994;48.204;16.516;2022-10-18T12:05:35;22.40;94.20
35894;DHT22;21994;48.204;16.516;2022-10-18T12:08:19;22.30;94.70
35894;DHT22;21994;48.204;16.516;2022-10-18T12:11:02;22.30;94.50
35894;DHT22;21994;48.204;16.516;2022-10-18T12:13:55;22.30;94.60
35894;DHT22;21994;48.204;16.516;2022-10-18T12:16:27;22.60;95.70
35894;DHT22;21994;48.204;16.516;2022-10-18T12:18:58;22.70;94.10
35894;DHT22;21994;48.204;16.516;2022-10-18T12:21:29;22.70;94.50
35894;DHT22;21994;48.204;16.516;2022-10-18T12:24:09;23.00;94.40
35894;DHT22;21994;48.204;16.516;2022-10-18T12:26:38;23.00;93.70
35894;DHT22;21994;48.204;16.516;2022-10-18T12:29:22;23.10;94.40
35894;DHT22;21994;48.204;16.516;2022-10-18T12:32:13;23.00;93.80
35894;DHT22;21994;48.204;16.516;2022-10-18T12:34:50;22.80;95.20
35894;DHT22;21994;48.204;16.516;2022-10-18T12:37:44;23.10;95.40
35894;DHT22;21994;48.204;16.516;2022-10-18T12:43:17;23.30;93.70
35894;DHT22;21994;48.204;16.516;2022-10-18T12:46:06;23.20;93.70
35894;DHT22;21994;48.204;16.516;2022-10-18T12:48:39;23.20;94.50
35894;DHT22;21994;48.204;16.516;2022-10-18T12:51:13;23.30;93.70
35894;DHT22;21994;48.204;16.516;2022-10-18T12:53:45;23.30;94.60
35894;DHT22;21994;48.204;16.516;2022-10-18T13:15:38;23.90;94.40
35894;DHT22;21994;48.204;16.516;2022-10-18T13:18:22;24.10;94.10
35894;DHT22;21994;48.204;16.516;2022-10-18T13:21:20;24.10;94.40
35894;DHT22;21994;48.204;16.516;2022-10-18T13:24:20;24.20;93.80
35894;DHT22;21994;48.204;16.516;2022-10-18T13:33:31;24.60;92.50
35894;DHT22;21994;48.204;16.516;2022-10-18T13:36:00;24.40;93.20
35894;DHT22;21994;48.204;16.516;2022-10-18T14:00:59;25.00;93.00
35894;DHT22;21994;48.204;16.516;2022-10-18T14:04:54;25.00;92.60
35894;DHT22;21994;48.204;16.516;2022-10-18T14:07:15;24.90;92.60
35894;DHT22;21994;48.204;16.516;2022-10-18T14:09:49;24.80;92.50
35894;DHT22;21994;48.204;16.516;2022-10-18T14:12:42;24.80;92.90
35894;DHT22;21994;48.204;16.516;2022-10-18T14:17:51;24.70;92.40
35894;DHT22;21994;48.204;16.516;2022-10-18T14:20:38;24.50;92.10
35894;DHT22;21994;48.204;16.516;2022-10-18T14:25:42;23.80;93.10
35894;DHT22;21994;48.204;16.516;2022-10-18T14:30:52;23.60;93.20
35894;DHT22;21994;48.204;16.516;2022-10-18T14:33:37;23.30;93.60
35894;DHT22;21994;48.204;16.516;2022-10-18T14:36:41;23.20;93.30
35894;DHT22;21994;48.204;16.516;2022-10-18T14:39:18;22.90;93.80
35894;DHT22;21994;48.204;16.516;2022-10-18T14:41:52;22.70;94.70
35894;DHT22;21994;48.204;16.516;2022-10-18T14:44:30;22.20;95.30
35894;DHT22;21994;48.204;16.516;2022-10-18T14:47:02;22.20;95.50
35894;DHT22;21994;48.204;16.516;2022-10-18T14:49:42;22.00;95.50
35894;DHT22;21994;48.204;16.516;2022-10-18T14:52:13;21.90;96.10
35894;DHT22;21994;48.204;16.516;2022-10-18T14:54:41;21.70;96.20
35894;DHT22;21994;48.204;16.516;2022-10-18T14:57:27;21.60;96.50
35894;DHT22;21994;48.204;16.516;2022-10-18T15:00:04;21.50;96.60
35894;DHT22;21994;48.204;16.516;2022-10-18T15:02:35;21.40;97.40
35894;DHT22;21994;48.204;16.516;2022-10-18T15:05:13;21.20;97.80
35894;DHT22;21994;48.204;16.516;2022-10-18T15:07:45;21.00;97.80
35894;DHT22;21994;48.204;16.516;2022-10-18T15:10:18;20.80;98.60
35894;DHT22;21994;48.204;16.516;2022-10-18T15:12:47;20.80;98.90
35894;DHT22;21994;48.204;16.516;2022-10-18T15:15:20;20.60;98.90
35894;DHT22;21994;48.204;16.516;2022-10-18T15:17:48;20.40;99.40
35894;DHT22;21994;48.204;16.516;2022-10-18T15:20:32;20.20;99.70
35894;DHT22;21994;48.204;16.516;2022-10-18T15:23:22;20.10;99.90
35894;DHT22;21994;48.204;16.516;2022-10-18T15:25:50;19.80;99.90
35894;DHT22;21994;48.204;16.516;2022-10-18T15:31:02;19.40;99.90
35894;DHT22;21994;48.204;16.516;2022-10-18T15:33:29;19.20;99.90
35894;DHT22;21994;48.204;16.516;2022-10-18T15:36:09;19.00;99.90
35894;DHT22;21994;48.204;16.516;2022-10-18T15:38:36;18.80;99.90
35894;DHT22;21994;48.204;16.516;2022-10-18T15:41:34;18.60;99.90
35894;DHT22;21994;48.204;16.516;2022-10-18T15:46:47;18.20;99.90
35894;DHT22;21994;48.204;16.516;2022-10-18T15:58:18;17.50;99.90
35894;DHT22;21994;48.204;16.516;2022-10-18T16:00:47;17.30;99.90
35894;DHT22;21994;48.204;16.516;2022-10-18T16:03:15;17.20;99.90
35894;DHT22;21994;48.204;16.516;2022-10-18T16:05:42;17.00;99.90
35894;DHT22;21994;48.204;16.516;2022-10-18T16:08:41;16.90;99.90
35894;DHT22;21994;48.204;16.516;2022-10-18T16:11:13;16.80;99.90
35894;DHT22;21994;48.204;16.516;2022-10-18T16:13:41;16.60;99.90
35894;DHT22;21994;48.204;16.516;2022-10-18T16:16:20;16.60;99.90
35894;DHT22;21994;48.204;16.516;2022-10-18T16:18:47;16.40;99.90
35894;DHT22;21994;48.204;16.516;2022-10-18T16:21:19;16.30;99.90
35894;DHT22;21994;48.204;16.516;2022-10-18T16:23:48;16.20;99.90
35894;DHT22;21994;48.204;16.516;2022-10-18T16:26:15;16.10;99.90
35894;DHT22;21994;48.204;16.516;2022-10-18T16:28:42;16.00;99.90
35894;DHT22;21994;48.204;16.516;2022-10-18T16:31:14;15.90;99.90
35894;DHT22;21994;48.204;16.516;2022-10-18T16:33:42;15.80;99.90
35894;DHT22;21994;48.204;16.516;2022-10-18T16:36:18;15.80;99.90
35894;DHT22;21994;48.204;16.516;2022-10-18T16:38:45;15.80;99.90
35894;DHT22;21994;48.204;16.516;2022-10-18T16:41:12;15.70;99.90
35894;DHT22;21994;48.204;16.516;2022-10-18T16:43:41;15.70;99.90
35894;DHT22;21994;48.204;16.516;2022-10-18T16:46:17;15.60;99.90
35894;DHT22;21994;48.204;16.516;2022-10-18T16:48:45;15.60;99.90
35894;DHT22;21994;48.204;16.516;2022-10-18T16:51:12;15.50;99.90
35894;DHT22;21994;48.204;16.516;2022-10-18T16:53:38;15.50;99.90
35894;DHT22;21994;48.204;16.516;2022-10-18T16:56:05;15.50;99.90
35894;DHT22;21994;48.204;16.516;2022-10-18T16:58:37;15.50;99.90
35894;DHT22;21994;48.204;16.516;2022-10-18T17:01:10;15.50;99.90
35894;DHT22;21994;48.204;16.516;2022-10-18T17:03:41;15.60;99.90
35894;DHT22;21994;48.204;16.516;2022-10-18T17:06:34;15.50;99.90
35894;DHT22;21994;48.204;16.516;2022-10-18T17:08:59;15.40;99.90
35894;DHT22;21994;48.204;16.516;2022-10-18T17:11:28;15.40;99.90
35894;DHT22;21994;48.204;16.516;2022-10-18T17:13:54;15.40;99.90
35894;DHT22;21994;48.204;16.516;2022-10-18T17:16:29;15.50;99.90
35894;DHT22;21994;48.204;16.516;2022-10-18T17:18:59;15.40;99.90
35894;DHT22;21994;48.204;16.516;2022-10-18T17:21:27;15.40;99.90
35894;DHT22;21994;48.204;16.516;2022-10-18T17:23:54;15.40;99.90
35894;DHT22;21994;48.204;16.516;2022-10-18T17:26:22;15.30;99.90
35894;DHT22;21994;48.204;16.516;2022-10-18T17:28:54;15.30;99.90
35894;DHT22;21994;48.204;16.516;2022-10-18T17:31:22;15.30;99.90
35894;DHT22;21994;48.204;16.516;2022-10-18T17:33:48;15.20;99.90
35894;DHT22;21994;48.204;16.516;2022-10-18T17:36:16;15.20;99.90
35894;DHT22;21994;48.204;16.516;2022-10-18T17:38:42;15.10;99.90
35894;DHT22;21994;48.204;16.516;2022-10-18T17:41:09;15.00;99.90
35894;DHT22;21994;48.204;16.516;2022-10-18T17:43:39;15.00;99.90
35894;DHT22;21994;48.204;16.516;2022-10-18T17:46:11;14.90;99.90
35894;DHT22;21994;48.204;16.516;2022-10-18T17:48:39;14.80;99.90
35894;DHT22;21994;48.204;16.516;2022-10-18T17:51:10;14.80;99.90
35894;DHT22;21994;48.204;16.516;2022-10-18T17:53:38;14.80;99.90
35894;DHT22;21994;48.204;16.516;2022-10-18T17:56:04;14.70;99.90
35894;DHT22;21994;48.204;16.516;2022-10-18T17:58:32;14.70;99.90
35894;DHT22;21994;48.204;16.516;2022-10-18T18:01:08;14.70;99.90
35894;DHT22;21994;48.204;16.516;2022-10-18T18:03:34;14.50;99.90
35894;DHT22;21994;48.204;16.516;2022-10-18T18:06:13;14.50;99.90
35894;DHT22;21994;48.204;16.516;2022-10-18T18:08:45;14.60;99.90
35894;DHT22;21994;48.204;16.516;2022-10-18T18:11:11;14.60;99.90
35894;DHT22;21994;48.204;16.516;2022-10-18T18:13:37;14.50;99.90
35894;DHT22;21994;48.204;16.516;2022-10-18T18:18:40;14.50;99.90
35894;DHT22;21994;48.204;16.516;2022-10-18T18:21:07;14.30;99.90
35894;DHT22;21994;48.204;16.516;2022-10-18T18:23:33;14.40;99.90
35894;DHT22;21994;48.204;16.516;2022-10-18T18:25:58;14.40;99.90
35894;DHT22;21994;48.204;16.516;2022-10-18T18:28:24;14.40;99.90
35894;DHT22;21994;48.204;16.516;2022-10-18T18:30:50;14.20;99.90
35894;DHT22;21994;48.204;16.516;2022-10-18T18:33:17;14.10;99.90
35894;DHT22;21994;48.204;16.516;2022-10-18T18:35:43;14.10;99.90